sensor_id;sensor_type;location;lat;lon;timestamp;temperature;humidity
23597;DHT22;40226;50.874;4.394;2022-09-16T00:00:22;15.50;99.90
23597;DHT22;40226;50.874;4.394;2022-09-16T00:02:51;15.50;99.90
23597;DHT22;40226;50.874;4.394;2022-09-16T00:05:17;15.30;99.90
23597;DHT22;40226;50.874;4.394;2022-09-16T00:07:44;15.20;99.90
23597;DHT22;40226;50.874;4.394;2022-09-16T00:10:10;15.20;99.90
23597;DHT22;40226;50.874;4.394;2022-09-16T00:12:35;15.00;99.90
23597;DHT22;40226;50.874;4.394;2022-09-16T00:15:01;14.90;99.90
23597;DHT22;40226;50.874;4.394;2022-09-16T00:17:27;15.00;99.90
23597;DHT22;40226;50.874;4.394;2022-09-16T00:19:55;15.00;99.90
23597;DHT22;40226;50.874;4.394;2022-09-16T00:22:20;14.80;99.90
23597;DHT22;40226;50.874;4.394;2022-09-16T00:24:48;14.80;99.90
23597;DHT22;40226;50.874;4.394;2022-09-16T00:27:14;15.00;99.90
23597;DHT22;40226;50.874;4.394;2022-09-16T00:29:40;15.20;99.90
23597;DHT22;40226;50.874;4.394;2022-09-16T00:32:06;15.10;99.90
23597;DHT22;40226;50.874;4.394;2022-09-16T00:34:31;14.90;99.90
23597;DHT22;40226;50.874;4.394;2022-09-16T00:36:57;14.70;99.90
23597;DHT22;40226;50.874;4.394;2022-09-16T00:39:23;14.80;99.90
23597;DHT22;40226;50.874;4.394;2022-09-16T00:41:48;14.70;99.90
23597;DHT22;40226;50.874;4.394;2022-09-16T00:47:28;15.00;99.90
23597;DHT22;40226;50.874;4.394;2022-09-16T00:49:56;15.00;99.90
23597;DHT22;40226;50.874;4.394;2022-09-16T00:52:25;15.20;99.90
23597;DHT22;40226;50.874;4.394;2022-09-16T00:54:51;14.90;99.90
23597;DHT22;40226;50.874;4.394;2022-09-16T00:57:17;14.90;99.90
23597;DHT22;40226;50.874;4.394;2022-09-16T00:59:46;15.00;99.90
23597;DHT22;40226;50.874;4.394;2022-09-16T01:02:18;15.20;99.90
23597;DHT22;40226;50.874;4.394;2022-09-16T01:05:11;15.00;99.90
23597;DHT22;40226;50.874;4.394;2022-09-16T01:07:46;15.10;99.90
23597;DHT22;40226;50.874;4.394;2022-09-16T01:10:18;15.20;99.90
23597;DHT22;40226;50.874;4.394;2022-09-16T01:12:53;15.00;99.90
23597;DHT22;40226;50.874;4.394;2022-09-16T01:15:25;14.90;99.90
23597;DHT22;40226;50.874;4.394;2022-09-16T01:36:43;14.40;99.90
23597;DHT22;40226;50.874;4.394;2022-09-16T01:39:24;14.20;99.90
23597;DHT22;40226;50.874;4.394;2022-09-16T01:44:58;14.60;99.90
23597;DHT22;40226;50.874;4.394;2022-09-16T01:47:48;14.30;99.90
23597;DHT22;40226;50.874;4.394;2022-09-16T01:55:44;14.30;99.90
23597;DHT22;40226;50.874;4.394;2022-09-16T01:58:16;14.20;99.90
23597;DHT22;40226;50.874;4.394;2022-09-16T02:00:45;14.20;99.90
23597;DHT22;40226;50.874;4.394;2022-09-16T02:03:23;14.20;99.90
23597;DHT22;40226;50.874;4.394;2022-09-16T02:05:55;14.20;99.90
23597;DHT22;40226;50.874;4.394;2022-09-16T02:08:26;14.20;99.90
23597;DHT22;40226;50.874;4.394;2022-09-16T02:10:58;14.30;99.90
23597;DHT22;40226;50.874;4.394;2022-09-16T02:13:34;14.50;99.90
23597;DHT22;40226;50.874;4.394;2022-09-16T02:16:09;14.60;99.90
23597;DHT22;40226;50.874;4.394;2022-09-16T02:18:36;14.80;99.90
23597;DHT22;40226;50.874;4.394;2022-09-16T02:21:05;14.70;99.90
23597;DHT22;40226;50.874;4.394;2022-09-16T02:23:44;14.80;99.90
23597;DHT22;40226;50.874;4.394;2022-09-16T02:26:13;14.90;99.90
23597;DHT22;40226;50.874;4.394;2022-09-16T02:28:41;14.70;99.90
23597;DHT22;40226;50.874;4.394;2022-09-16T02:31:09;14.80;99.90
23597;DHT22;40226;50.874;4.394;2022-09-16T02:33:44;14.80;99.90
23597;DHT22;40226;50.874;4.394;2022-09-16T02:36:15;15.00;99.90
23597;DHT22;40226;50.874;4.394;2022-09-16T02:38:46;15.20;99.90
23597;DHT22;40226;50.874;4.394;2022-09-16T02:41:12;15.30;99.90
23597;DHT22;40226;50.874;4.394;2022-09-16T02:43:43;15.10;99.90
23597;DHT22;40226;50.874;4.394;2022-09-16T02:55:24;14.90;99.90
23597;DHT22;40226;50.874;4.394;2022-09-16T02:57:52;14.70;99.90
23597;DHT22;40226;50.874;4.394;2022-09-16T03:00:18;14.50;99.90
23597;DHT22;40226;50.874;4.394;2022-09-16T03:02:44;14.30;99.90
23597;DHT22;40226;50.874;4.394;2022-09-16T03:05:10;14.40;99.90
23597;DHT22;40226;50.874;4.394;2022-09-16T03:07:38;14.50;99.90
23597;DHT22;40226;50.874;4.394;2022-09-16T03:10:08;14.70;99.90
23597;DHT22;40226;50.874;4.394;2022-09-16T03:34:45;13.60;99.90
23597;DHT22;40226;50.874;4.394;2022-09-16T03:37:15;13.40;99.90
23597;DHT22;40226;50.874;4.394;2022-09-16T03:39:48;13.50;99.90
23597;DHT22;40226;50.874;4.394;2022-09-16T03:42:16;13.60;99.90
23597;DHT22;40226;50.874;4.394;2022-09-16T03:44:41;13.50;99.90
23597;DHT22;40226;50.874;4.394;2022-09-16T03:47:07;13.50;99.90
23597;DHT22;40226;50.874;4.394;2022-09-16T03:49:34;13.40;99.90
23597;DHT22;40226;50.874;4.394;2022-09-16T03:51:59;13.30;99.90
23597;DHT22;40226;50.874;4.394;2022-09-16T03:54:26;13.20;99.90
23597;DHT22;40226;50.874;4.394;2022-09-16T03:56:51;13.30;99.90
23597;DHT22;40226;50.874;4.394;2022-09-16T03:59:17;13.30;99.90
23597;DHT22;40226;50.874;4.394;2022-09-16T04:01:58;13.40;99.90
23597;DHT22;40226;50.874;4.394;2022-09-16T04:04:24;13.40;99.90
23597;DHT22;40226;50.874;4.394;2022-09-16T04:06:49;13.50;99.90
23597;DHT22;40226;50.874;4.394;2022-09-16T04:09:15;13.40;99.90
23597;DHT22;40226;50.874;4.394;2022-09-16T04:11:41;13.50;99.90
23597;DHT22;40226;50.874;4.394;2022-09-16T04:14:07;13.40;99.90
23597;DHT22;40226;50.874;4.394;2022-09-16T04:16:33;13.60;99.90
23597;DHT22;40226;50.874;4.394;2022-09-16T04:18:59;13.50;99.90
23597;DHT22;40226;50.874;4.394;2022-09-16T04:21:25;13.60;99.90
23597;DHT22;40226;50.874;4.394;2022-09-16T04:23:51;13.60;99.90
23597;DHT22;40226;50.874;4.394;2022-09-16T04:26:19;13.60;99.90
23597;DHT22;40226;50.874;4.394;2022-09-16T04:28:45;13.70;99.90
23597;DHT22;40226;50.874;4.394;2022-09-16T04:31:13;13.60;99.90
23597;DHT22;40226;50.874;4.394;2022-09-16T04:33:40;13.70;99.90
23597;DHT22;40226;50.874;4.394;2022-09-16T04:36:10;13.90;99.90
23597;DHT22;40226;50.874;4.394;2022-09-16T04:38:40;14.00;99.90
23597;DHT22;40226;50.874;4.394;2022-09-16T04:41:11;14.00;99.90
23597;DHT22;40226;50.874;4.394;2022-09-16T04:43:38;13.90;99.90
23597;DHT22;40226;50.874;4.394;2022-09-16T04:46:04;13.80;99.90
23597;DHT22;40226;50.874;4.394;2022-09-16T04:48:30;13.80;99.90
23597;DHT22;40226;50.874;4.394;2022-09-16T04:51:02;13.90;99.90
23597;DHT22;40226;50.874;4.394;2022-09-16T04:53:28;13.80;99.90
23597;DHT22;40226;50.874;4.394;2022-09-16T04:56:02;13.80;99.90
23597;DHT22;40226;50.874;4.394;2022-09-16T04:58:29;13.80;99.90
23597;DHT22;40226;50.874;4.394;2022-09-16T05:00:54;13.70;99.90
23597;DHT22;40226;50.874;4.394;2022-09-16T05:03:20;13.80;99.90
23597;DHT22;40226;50.874;4.394;2022-09-16T05:05:46;14.00;99.90
23597;DHT22;40226;50.874;4.394;2022-09-16T05:08:12;14.20;99.90
23597;DHT22;40226;50.874;4.394;2022-09-16T05:10:37;14.10;99.90
23597;DHT22;40226;50.874;4.394;2022-09-16T05:13:03;14.20;99.90
23597;DHT22;40226;50.874;4.394;2022-09-16T05:15:28;14.10;99.90
23597;DHT22;40226;50.874;4.394;2022-09-16T05:17:54;14.10;99.90
23597;DHT22;40226;50.874;4.394;2022-09-16T05:20:20;14.10;99.90
23597;DHT22;40226;50.874;4.394;2022-09-16T05:22:48;14.30;99.90
23597;DHT22;40226;50.874;4.394;2022-09-16T05:25:15;14.40;99.90
23597;DHT22;40226;50.874;4.394;2022-09-16T05:27:41;14.30;99.90
23597;DHT22;40226;50.874;4.394;2022-09-16T05:30:07;14.40;99.90
23597;DHT22;40226;50.874;4.394;2022-09-16T05:32:32;14.60;99.90
23597;DHT22;40226;50.874;4.394;2022-09-16T05:34:58;14.70;99.90
23597;DHT22;40226;50.874;4.394;2022-09-16T05:37:23;14.70;99.90
23597;DHT22;40226;50.874;4.394;2022-09-16T05:39:49;14.70;99.90
23597;DHT22;40226;50.874;4.394;2022-09-16T05:42:15;14.40;99.90
23597;DHT22;40226;50.874;4.394;2022-09-16T05:44:40;14.50;99.90
23597;DHT22;40226;50.874;4.394;2022-09-16T05:47:06;14.60;99.90
23597;DHT22;40226;50.874;4.394;2022-09-16T05:49:31;14.70;99.90
23597;DHT22;40226;50.874;4.394;2022-09-16T05:51:57;14.70;99.90
23597;DHT22;40226;50.874;4.394;2022-09-16T05:54:22;14.80;99.90
23597;DHT22;40226;50.874;4.394;2022-09-16T05:56:50;14.90;99.90
23597;DHT22;40226;50.874;4.394;2022-09-16T05:59:16;14.80;99.90
23597;DHT22;40226;50.874;4.394;2022-09-16T06:01:42;14.60;99.90
23597;DHT22;40226;50.874;4.394;2022-09-16T06:04:11;14.60;99.90
23597;DHT22;40226;50.874;4.394;2022-09-16T06:06:39;14.80;99.90
23597;DHT22;40226;50.874;4.394;2022-09-16T06:09:09;14.80;99.90
23597;DHT22;40226;50.874;4.394;2022-09-16T06:11:38;14.60;99.90
23597;DHT22;40226;50.874;4.394;2022-09-16T06:14:04;14.40;99.90
23597;DHT22;40226;50.874;4.394;2022-09-16T06:16:31;14.20;99.90
23597;DHT22;40226;50.874;4.394;2022-09-16T06:19:01;14.20;99.90
23597;DHT22;40226;50.874;4.394;2022-09-16T06:21:28;14.20;99.90
23597;DHT22;40226;50.874;4.394;2022-09-16T06:23:54;14.10;99.90
23597;DHT22;40226;50.874;4.394;2022-09-16T06:26:22;14.00;99.90
23597;DHT22;40226;50.874;4.394;2022-09-16T06:28:49;14.00;99.90
23597;DHT22;40226;50.874;4.394;2022-09-16T06:31:17;13.90;99.90
23597;DHT22;40226;50.874;4.394;2022-09-16T06:33:43;13.60;99.90
23597;DHT22;40226;50.874;4.394;2022-09-16T06:36:22;13.80;99.90
23597;DHT22;40226;50.874;4.394;2022-09-16T06:38:48;13.80;99.90
23597;DHT22;40226;50.874;4.394;2022-09-16T06:41:15;13.60;99.90
23597;DHT22;40226;50.874;4.394;2022-09-16T06:43:41;13.80;99.90
23597;DHT22;40226;50.874;4.394;2022-09-16T06:46:13;14.10;99.90
23597;DHT22;40226;50.874;4.394;2022-09-16T06:48:45;14.10;99.90
23597;DHT22;40226;50.874;4.394;2022-09-16T06:51:17;14.10;99.90
23597;DHT22;40226;50.874;4.394;2022-09-16T06:53:43;14.00;99.90
23597;DHT22;40226;50.874;4.394;2022-09-16T06:56:12;14.00;99.90
23597;DHT22;40226;50.874;4.394;2022-09-16T06:58:40;13.80;99.90
23597;DHT22;40226;50.874;4.394;2022-09-16T07:01:08;13.80;99.90
23597;DHT22;40226;50.874;4.394;2022-09-16T07:03:38;13.80;99.90
23597;DHT22;40226;50.874;4.394;2022-09-16T07:06:05;13.70;99.90
23597;DHT22;40226;50.874;4.394;2022-09-16T07:08:31;13.60;99.90
23597;DHT22;40226;50.874;4.394;2022-09-16T07:10:59;13.50;99.90
23597;DHT22;40226;50.874;4.394;2022-09-16T07:13:25;13.60;99.90
23597;DHT22;40226;50.874;4.394;2022-09-16T07:15:51;13.60;99.90
23597;DHT22;40226;50.874;4.394;2022-09-16T07:18:17;13.60;99.90
23597;DHT22;40226;50.874;4.394;2022-09-16T07:20:43;13.50;99.90
23597;DHT22;40226;50.874;4.394;2022-09-16T07:23:09;13.80;99.90
23597;DHT22;40226;50.874;4.394;2022-09-16T07:25:34;13.70;99.90
23597;DHT22;40226;50.874;4.394;2022-09-16T07:28:00;13.50;99.90
23597;DHT22;40226;50.874;4.394;2022-09-16T07:30:25;13.50;99.90
23597;DHT22;40226;50.874;4.394;2022-09-16T07:32:54;13.60;99.90
23597;DHT22;40226;50.874;4.394;2022-09-16T07:35:20;13.50;99.90
23597;DHT22;40226;50.874;4.394;2022-09-16T07:37:46;13.30;99.90
23597;DHT22;40226;50.874;4.394;2022-09-16T07:40:12;13.20;99.90
23597;DHT22;40226;50.874;4.394;2022-09-16T07:42:38;13.20;99.90
23597;DHT22;40226;50.874;4.394;2022-09-16T07:45:04;13.30;99.90
23597;DHT22;40226;50.874;4.394;2022-09-16T07:47:30;13.30;99.90
23597;DHT22;40226;50.874;4.394;2022-09-16T07:49:56;13.50;99.90
23597;DHT22;40226;50.874;4.394;2022-09-16T07:52:22;13.80;99.90
23597;DHT22;40226;50.874;4.394;2022-09-16T07:54:54;14.00;99.90
23597;DHT22;40226;50.874;4.394;2022-09-16T07:57:20;14.20;99.90
23597;DHT22;40226;50.874;4.394;2022-09-16T07:59:46;14.20;99.90
23597;DHT22;40226;50.874;4.394;2022-09-16T08:02:12;14.20;99.90
23597;DHT22;40226;50.874;4.394;2022-09-16T08:04:37;14.20;99.90
23597;DHT22;40226;50.874;4.394;2022-09-16T08:07:04;14.40;99.90
23597;DHT22;40226;50.874;4.394;2022-09-16T08:09:30;14.50;99.90
23597;DHT22;40226;50.874;4.394;2022-09-16T08:11:56;14.70;99.90
23597;DHT22;40226;50.874;4.394;2022-09-16T08:14:22;14.70;99.90
23597;DHT22;40226;50.874;4.394;2022-09-16T08:16:47;14.70;99.90
23597;DHT22;40226;50.874;4.394;2022-09-16T08:19:15;14.60;99.90
23597;DHT22;40226;50.874;4.394;2022-09-16T08:21:41;14.90;99.90
23597;DHT22;40226;50.874;4.394;2022-09-16T08:24:08;15.10;99.90
23597;DHT22;40226;50.874;4.394;2022-09-16T08:26:34;14.80;99.90
23597;DHT22;40226;50.874;4.394;2022-09-16T08:29:00;14.90;99.90
23597;DHT22;40226;50.874;4.394;2022-09-16T08:31:26;15.00;99.90
23597;DHT22;40226;50.874;4.394;2022-09-16T08:33:51;15.10;99.90
23597;DHT22;40226;50.874;4.394;2022-09-16T08:36:19;14.90;99.90
23597;DHT22;40226;50.874;4.394;2022-09-16T08:38:47;15.00;99.90
23597;DHT22;40226;50.874;4.394;2022-09-16T08:41:22;15.20;99.90
23597;DHT22;40226;50.874;4.394;2022-09-16T08:51:38;14.40;99.90
23597;DHT22;40226;50.874;4.394;2022-09-16T08:54:14;14.20;99.90
23597;DHT22;40226;50.874;4.394;2022-09-16T08:56:45;13.90;99.90
23597;DHT22;40226;50.874;4.394;2022-09-16T08:59:16;13.90;99.90
23597;DHT22;40226;50.874;4.394;2022-09-16T09:01:49;13.60;99.90
23597;DHT22;40226;50.874;4.394;2022-09-16T09:04:17;13.50;99.90
23597;DHT22;40226;50.874;4.394;2022-09-16T09:07:06;13.50;99.90
23597;DHT22;40226;50.874;4.394;2022-09-16T09:09:53;13.60;99.90
23597;DHT22;40226;50.874;4.394;2022-09-16T09:12:38;13.70;99.90
23597;DHT22;40226;50.874;4.394;2022-09-16T09:25:59;13.80;99.90
23597;DHT22;40226;50.874;4.394;2022-09-16T09:31:42;14.00;99.90
23597;DHT22;40226;50.874;4.394;2022-09-16T09:34:24;14.20;99.90
23597;DHT22;40226;50.874;4.394;2022-09-16T09:45:24;14.70;99.90
23597;DHT22;40226;50.874;4.394;2022-09-16T09:50:38;14.50;99.90
23597;DHT22;40226;50.874;4.394;2022-09-16T09:55:37;14.60;99.90
23597;DHT22;40226;50.874;4.394;2022-09-16T09:58:23;14.80;99.90
23597;DHT22;40226;50.874;4.394;2022-09-16T10:00:51;15.10;99.90
23597;DHT22;40226;50.874;4.394;2022-09-16T10:03:24;15.40;99.90
23597;DHT22;40226;50.874;4.394;2022-09-16T10:05:50;15.80;99.90
23597;DHT22;40226;50.874;4.394;2022-09-16T10:10:53;16.10;99.90
23597;DHT22;40226;50.874;4.394;2022-09-16T10:13:21;16.40;99.90
23597;DHT22;40226;50.874;4.394;2022-09-16T10:15:48;16.60;99.90
23597;DHT22;40226;50.874;4.394;2022-09-16T10:18:22;16.70;99.90
23597;DHT22;40226;50.874;4.394;2022-09-16T10:20:57;16.70;99.90
23597;DHT22;40226;50.874;4.394;2022-09-16T10:23:24;16.80;99.90
23597;DHT22;40226;50.874;4.394;2022-09-16T10:28:39;16.60;99.90
23597;DHT22;40226;50.874;4.394;2022-09-16T10:31:06;16.70;99.90
23597;DHT22;40226;50.874;4.394;2022-09-16T10:33:34;16.60;99.90
23597;DHT22;40226;50.874;4.394;2022-09-16T10:36:10;16.40;99.90
23597;DHT22;40226;50.874;4.394;2022-09-16T10:38:41;15.80;99.90
23597;DHT22;40226;50.874;4.394;2022-09-16T10:41:18;15.80;99.90
23597;DHT22;40226;50.874;4.394;2022-09-16T10:43:57;15.60;99.90
23597;DHT22;40226;50.874;4.394;2022-09-16T10:46:24;15.30;99.90
23597;DHT22;40226;50.874;4.394;2022-09-16T10:48:50;15.40;99.90
23597;DHT22;40226;50.874;4.394;2022-09-16T10:51:21;15.30;99.90
23597;DHT22;40226;50.874;4.394;2022-09-16T10:53:53;15.70;99.90
23597;DHT22;40226;50.874;4.394;2022-09-16T10:56:21;15.80;99.90
23597;DHT22;40226;50.874;4.394;2022-09-16T10:58:48;16.10;99.90
23597;DHT22;40226;50.874;4.394;2022-09-16T11:04:17;17.20;99.90
23597;DHT22;40226;50.874;4.394;2022-09-16T11:07:05;17.90;99.90
23597;DHT22;40226;50.874;4.394;2022-09-16T11:09:47;17.40;99.90
23597;DHT22;40226;50.874;4.394;2022-09-16T11:12:28;17.50;99.90
23597;DHT22;40226;50.874;4.394;2022-09-16T11:20:33;17.30;9.00
23597;DHT22;40226;50.874;4.394;2022-09-16T11:28:47;17.00;1.00
23597;DHT22;40226;50.874;4.394;2022-09-16T11:33:57;16.40;9.00
23597;DHT22;40226;50.874;4.394;2022-09-16T11:39:16;16.00;53.90
23597;DHT22;40226;50.874;4.394;2022-09-16T11:50:02;15.70;64.90
23597;DHT22;40226;50.874;4.394;2022-09-16T11:52:55;15.70;86.70
23597;DHT22;40226;50.874;4.394;2022-09-16T12:01:12;14.40;99.90
23597;DHT22;40226;50.874;4.394;2022-09-16T12:03:49;14.20;99.90
23597;DHT22;40226;50.874;4.394;2022-09-16T12:06:22;13.90;99.90
23597;DHT22;40226;50.874;4.394;2022-09-16T12:11:34;13.70;99.90
23597;DHT22;40226;50.874;4.394;2022-09-16T12:14:20;13.70;99.90
23597;DHT22;40226;50.874;4.394;2022-09-16T12:16:50;13.70;99.90
23597;DHT22;40226;50.874;4.394;2022-09-16T12:19:35;13.60;99.90
23597;DHT22;40226;50.874;4.394;2022-09-16T12:22:11;13.40;99.90
23597;DHT22;40226;50.874;4.394;2022-09-16T12:25:07;13.30;99.90
23597;DHT22;40226;50.874;4.394;2022-09-16T12:30:18;13.30;99.90
23597;DHT22;40226;50.874;4.394;2022-09-16T12:33:13;13.40;99.90
23597;DHT22;40226;50.874;4.394;2022-09-16T12:38:21;14.10;99.90
23597;DHT22;40226;50.874;4.394;2022-09-16T12:44:24;14.50;99.90
23597;DHT22;40226;50.874;4.394;2022-09-16T13:00:57;16.10;91.30
23597;DHT22;40226;50.874;4.394;2022-09-16T13:03:30;16.10;80.90
23597;DHT22;40226;50.874;4.394;2022-09-16T13:06:03;16.60;91.30
23597;DHT22;40226;50.874;4.394;2022-09-16T13:08:31;16.80;75.80
23597;DHT22;40226;50.874;4.394;2022-09-16T13:11:00;16.80;62.40
23597;DHT22;40226;50.874;4.394;2022-09-16T13:13:36;16.80;60.70
23597;DHT22;40226;50.874;4.394;2022-09-16T13:16:05;16.90;68.10
23597;DHT22;40226;50.874;4.394;2022-09-16T13:18:47;17.00;65.50
23597;DHT22;40226;50.874;4.394;2022-09-16T13:24:03;17.30;62.00
23597;DHT22;40226;50.874;4.394;2022-09-16T13:26:40;18.30;20.10
23597;DHT22;40226;50.874;4.394;2022-09-16T13:29:30;18.20;1.00
23597;DHT22;40226;50.874;4.394;2022-09-16T13:32:03;18.80;1.00
23597;DHT22;40226;50.874;4.394;2022-09-16T13:34:29;20.00;1.00
23597;DHT22;40226;50.874;4.394;2022-09-16T13:36:55;19.70;1.00
23597;DHT22;40226;50.874;4.394;2022-09-16T13:39:31;18.60;1.00
23597;DHT22;40226;50.874;4.394;2022-09-16T13:42:18;17.00;1.20
23597;DHT22;40226;50.874;4.394;2022-09-16T13:44:45;15.60;61.10
23597;DHT22;40226;50.874;4.394;2022-09-16T13:54:51;14.40;99.90
23597;DHT22;40226;50.874;4.394;2022-09-16T14:02:59;18.10;56.30
23597;DHT22;40226;50.874;4.394;2022-09-16T14:13:52;18.70;1.00
23597;DHT22;40226;50.874;4.394;2022-09-16T14:16:20;20.00;1.00
23597;DHT22;40226;50.874;4.394;2022-09-16T14:19:03;21.10;99.90
23597;DHT22;40226;50.874;4.394;2022-09-16T14:21:29;20.80;1.00
23597;DHT22;40226;50.874;4.394;2022-09-16T14:24:23;19.80;1.00
23597;DHT22;40226;50.874;4.394;2022-09-16T14:26:50;19.90;1.00
23597;DHT22;40226;50.874;4.394;2022-09-16T14:29:16;19.60;1.00
23597;DHT22;40226;50.874;4.394;2022-09-16T14:31:42;18.60;1.00
23597;DHT22;40226;50.874;4.394;2022-09-16T14:34:15;17.70;1.00
23597;DHT22;40226;50.874;4.394;2022-09-16T14:36:45;17.30;1.00
23597;DHT22;40226;50.874;4.394;2022-09-16T14:39:13;18.00;1.00
23597;DHT22;40226;50.874;4.394;2022-09-16T14:41:45;18.80;1.00
23597;DHT22;40226;50.874;4.394;2022-09-16T14:46:56;21.90;99.90
23597;DHT22;40226;50.874;4.394;2022-09-16T14:49:23;21.80;1.00
23597;DHT22;40226;50.874;4.394;2022-09-16T14:51:57;20.70;99.90
23597;DHT22;40226;50.874;4.394;2022-09-16T14:54:24;19.70;99.90
23597;DHT22;40226;50.874;4.394;2022-09-16T14:57:02;19.30;99.90
23597;DHT22;40226;50.874;4.394;2022-09-16T14:59:37;18.60;99.90
23597;DHT22;40226;50.874;4.394;2022-09-16T15:02:36;18.40;1.00
23597;DHT22;40226;50.874;4.394;2022-09-16T15:07:47;19.10;1.00
23597;DHT22;40226;50.874;4.394;2022-09-16T15:10:22;19.20;99.90
23597;DHT22;40226;50.874;4.394;2022-09-16T15:12:55;19.50;99.90
23597;DHT22;40226;50.874;4.394;2022-09-16T15:15:26;20.50;1.00
23597;DHT22;40226;50.874;4.394;2022-09-16T15:18:05;21.60;1.00
23597;DHT22;40226;50.874;4.394;2022-09-16T15:20:34;22.80;99.90
23597;DHT22;40226;50.874;4.394;2022-09-16T15:23:03;23.50;99.90
23597;DHT22;40226;50.874;4.394;2022-09-16T15:25:32;23.80;99.90
23597;DHT22;40226;50.874;4.394;2022-09-16T15:30:30;21.70;1.00
23597;DHT22;40226;50.874;4.394;2022-09-16T15:32:56;21.00;1.00
23597;DHT22;40226;50.874;4.394;2022-09-16T15:37:50;19.20;71.80
23597;DHT22;40226;50.874;4.394;2022-09-16T15:43:24;18.40;99.90
23597;DHT22;40226;50.874;4.394;2022-09-16T15:46:00;18.20;99.90
23597;DHT22;40226;50.874;4.394;2022-09-16T15:48:33;18.10;1.00
23597;DHT22;40226;50.874;4.394;2022-09-16T15:51:18;18.20;1.00
23597;DHT22;40226;50.874;4.394;2022-09-16T15:53:48;17.80;1.00
23597;DHT22;40226;50.874;4.394;2022-09-16T15:56:25;17.50;1.00
23597;DHT22;40226;50.874;4.394;2022-09-16T15:58:59;17.20;1.00
23597;DHT22;40226;50.874;4.394;2022-09-16T16:01:45;17.30;1.00
23597;DHT22;40226;50.874;4.394;2022-09-16T16:04:12;17.20;1.00
23597;DHT22;40226;50.874;4.394;2022-09-16T16:06:59;17.20;1.00
23597;DHT22;40226;50.874;4.394;2022-09-16T16:14:31;16.80;1.00
23597;DHT22;40226;50.874;4.394;2022-09-16T16:17:13;16.60;1.00
23597;DHT22;40226;50.874;4.394;2022-09-16T16:19:42;16.50;1.00
23597;DHT22;40226;50.874;4.394;2022-09-16T16:22:08;16.10;1.00
23597;DHT22;40226;50.874;4.394;2022-09-16T16:24:34;15.90;1.00
23597;DHT22;40226;50.874;4.394;2022-09-16T16:27:00;15.70;1.00
23597;DHT22;40226;50.874;4.394;2022-09-16T16:29:26;15.50;4.90
23597;DHT22;40226;50.874;4.394;2022-09-16T16:31:58;15.50;28.20
23597;DHT22;40226;50.874;4.394;2022-09-16T16:34:31;15.40;28.50
23597;DHT22;40226;50.874;4.394;2022-09-16T16:36:56;15.40;43.10
23597;DHT22;40226;50.874;4.394;2022-09-16T16:39:22;15.30;56.80
23597;DHT22;40226;50.874;4.394;2022-09-16T16:41:50;14.90;88.20
23597;DHT22;40226;50.874;4.394;2022-09-16T16:44:17;14.70;94.40
23597;DHT22;40226;50.874;4.394;2022-09-16T16:46:43;14.40;99.90
23597;DHT22;40226;50.874;4.394;2022-09-16T16:49:08;14.10;99.90
23597;DHT22;40226;50.874;4.394;2022-09-16T16:51:34;13.90;99.90
23597;DHT22;40226;50.874;4.394;2022-09-16T16:53:59;13.80;99.90
23597;DHT22;40226;50.874;4.394;2022-09-16T16:56:25;13.60;99.90
23597;DHT22;40226;50.874;4.394;2022-09-16T16:58:53;13.60;99.90
23597;DHT22;40226;50.874;4.394;2022-09-16T17:01:19;13.50;99.90
23597;DHT22;40226;50.874;4.394;2022-09-16T17:03:46;13.40;99.90
23597;DHT22;40226;50.874;4.394;2022-09-16T17:06:15;13.30;99.90
23597;DHT22;40226;50.874;4.394;2022-09-16T17:08:40;13.30;99.90
23597;DHT22;40226;50.874;4.394;2022-09-16T17:11:17;13.10;99.90
23597;DHT22;40226;50.874;4.394;2022-09-16T17:13:49;13.20;99.90
23597;DHT22;40226;50.874;4.394;2022-09-16T17:16:18;13.20;99.90
23597;DHT22;40226;50.874;4.394;2022-09-16T17:18:45;13.30;99.90
23597;DHT22;40226;50.874;4.394;2022-09-16T17:21:18;13.20;99.90
23597;DHT22;40226;50.874;4.394;2022-09-16T17:23:44;13.20;99.90
23597;DHT22;40226;50.874;4.394;2022-09-16T17:26:11;13.30;99.90
23597;DHT22;40226;50.874;4.394;2022-09-16T17:28:38;13.30;99.90
23597;DHT22;40226;50.874;4.394;2022-09-16T17:31:18;13.20;99.90
23597;DHT22;40226;50.874;4.394;2022-09-16T17:33:51;13.10;99.90
23597;DHT22;40226;50.874;4.394;2022-09-16T17:36:17;13.10;99.90
23597;DHT22;40226;50.874;4.394;2022-09-16T17:38:45;13.30;99.90
23597;DHT22;40226;50.874;4.394;2022-09-16T17:41:13;13.30;99.90
23597;DHT22;40226;50.874;4.394;2022-09-16T17:43:40;13.30;99.90
23597;DHT22;40226;50.874;4.394;2022-09-16T17:46:10;13.30;99.90
23597;DHT22;40226;50.874;4.394;2022-09-16T17:48:36;13.20;99.90
23597;DHT22;40226;50.874;4.394;2022-09-16T17:51:03;13.10;99.90
23597;DHT22;40226;50.874;4.394;2022-09-16T17:53:29;13.20;99.90
23597;DHT22;40226;50.874;4.394;2022-09-16T17:56:10;13.30;99.90
23597;DHT22;40226;50.874;4.394;2022-09-16T17:58:37;13.40;99.90
23597;DHT22;40226;50.874;4.394;2022-09-16T18:01:15;13.30;99.90
23597;DHT22;40226;50.874;4.394;2022-09-16T18:03:43;13.20;99.90
23597;DHT22;40226;50.874;4.394;2022-09-16T18:06:13;13.10;99.90
23597;DHT22;40226;50.874;4.394;2022-09-16T18:08:40;13.20;99.90
23597;DHT22;40226;50.874;4.394;2022-09-16T18:11:07;13.20;99.90
23597;DHT22;40226;50.874;4.394;2022-09-16T18:13:33;13.10;99.90
23597;DHT22;40226;50.874;4.394;2022-09-16T18:16:07;13.10;99.90
23597;DHT22;40226;50.874;4.394;2022-09-16T18:18:33;13.00;99.90
23597;DHT22;40226;50.874;4.394;2022-09-16T18:21:02;13.10;99.90
23597;DHT22;40226;50.874;4.394;2022-09-16T18:23:28;13.10;99.90
23597;DHT22;40226;50.874;4.394;2022-09-16T18:25:55;13.20;99.90
23597;DHT22;40226;50.874;4.394;2022-09-16T18:28:21;13.10;99.90
23597;DHT22;40226;50.874;4.394;2022-09-16T18:31:02;13.10;99.90
23597;DHT22;40226;50.874;4.394;2022-09-16T18:33:44;13.00;99.90
23597;DHT22;40226;50.874;4.394;2022-09-16T18:36:12;13.00;99.90
23597;DHT22;40226;50.874;4.394;2022-09-16T18:38:39;13.00;99.90
23597;DHT22;40226;50.874;4.394;2022-09-16T18:41:13;13.00;99.90
23597;DHT22;40226;50.874;4.394;2022-09-16T18:43:41;12.80;99.90
23597;DHT22;40226;50.874;4.394;2022-09-16T18:46:09;12.80;99.90
23597;DHT22;40226;50.874;4.394;2022-09-16T18:48:35;12.60;99.90
23597;DHT22;40226;50.874;4.394;2022-09-16T18:51:01;12.60;99.90
23597;DHT22;40226;50.874;4.394;2022-09-16T18:53:26;12.60;99.90
23597;DHT22;40226;50.874;4.394;2022-09-16T18:55:53;12.80;99.90
23597;DHT22;40226;50.874;4.394;2022-09-16T18:58:18;12.80;99.90
23597;DHT22;40226;50.874;4.394;2022-09-16T19:00:44;12.60;99.90
23597;DHT22;40226;50.874;4.394;2022-09-16T19:03:13;12.70;99.90
23597;DHT22;40226;50.874;4.394;2022-09-16T19:05:39;12.50;99.90
23597;DHT22;40226;50.874;4.394;2022-09-16T19:08:04;12.50;99.90
23597;DHT22;40226;50.874;4.394;2022-09-16T19:10:30;12.30;99.90
23597;DHT22;40226;50.874;4.394;2022-09-16T19:12:56;12.50;99.90